createdAt,value
2023-08-19T00:01:12.128Z,20.38
2023-08-19T00:03:40.373Z,20.32
2023-08-19T00:06:11.456Z,20.25
2023-08-19T00:08:39.875Z,20.20
2023-08-19T00:11:08.008Z,20.17
2023-08-19T00:13:36.268Z,20.15
2023-08-19T00:16:05.450Z,20.13
2023-08-19T00:18:33.927Z,20.11
2023-08-19T00:21:02.162Z,20.11
2023-08-19T00:23:30.200Z,20.10
2023-08-19T00:25:58.479Z,20.10
2023-08-19T00:28:26.961Z,20.10
2023-08-19T00:30:55.133Z,20.09
2023-08-19T00:33:26.211Z,20.09
2023-08-19T00:35:54.553Z,20.09
2023-08-19T00:38:23.101Z,20.10
2023-08-19T00:40:51.177Z,20.10
2023-08-19T00:43:19.343Z,20.09
2023-08-19T00:45:52.675Z,20.07
2023-08-19T00:48:21.564Z,20.02
2023-08-19T00:50:50.889Z,19.99
2023-08-19T00:53:19.414Z,19.96
2023-08-19T00:55:47.490Z,19.90
2023-08-19T00:58:15.628Z,19.84
2023-08-19T01:00:44.496Z,19.78
2023-08-19T01:03:12.544Z,19.72
2023-08-19T01:06:03.732Z,19.67
2023-08-19T01:08:41.712Z,19.62
2023-08-19T01:11:37.889Z,19.57
2023-08-19T01:14:24.531Z,19.54
2023-08-19T01:16:55.132Z,19.52
2023-08-19T01:19:33.923Z,19.51
2023-08-19T01:22:05.964Z,19.49
2023-08-19T01:24:36.468Z,19.49
2023-08-19T01:27:22.333Z,19.48
2023-08-19T01:29:50.526Z,19.48
2023-08-19T01:32:21.368Z,19.48
2023-08-19T01:34:50.695Z,19.47
2023-08-19T01:37:31.318Z,19.47
2023-08-19T01:40:02.207Z,19.46
2023-08-19T01:42:33.884Z,19.46
2023-08-19T01:45:04.140Z,19.46
2023-08-19T01:47:32.935Z,19.46
2023-08-19T01:50:01.453Z,19.45
2023-08-19T01:52:29.498Z,19.45
2023-08-19T01:54:57.740Z,19.44
2023-08-19T01:57:29.318Z,19.44
2023-08-19T01:59:57.886Z,19.43
2023-08-19T02:02:26.057Z,19.41
2023-08-19T02:04:54.151Z,19.38
2023-08-19T02:07:22.335Z,19.34
2023-08-19T02:09:50.399Z,19.28
2023-08-19T02:12:18.712Z,19.22
2023-08-19T02:14:46.629Z,19.15
2023-08-19T02:17:14.690Z,19.09
2023-08-19T02:19:42.609Z,19.02
2023-08-19T02:22:10.756Z,18.97
2023-08-19T02:24:38.777Z,18.92
2023-08-19T02:27:06.865Z,18.88
2023-08-19T02:29:35.000Z,18.86
2023-08-19T02:32:03.575Z,18.85
2023-08-19T02:34:31.856Z,18.83
2023-08-19T02:36:59.924Z,18.84
2023-08-19T02:39:28.044Z,18.84
2023-08-19T02:41:56.290Z,18.84
2023-08-19T02:44:24.553Z,18.84
2023-08-19T02:46:52.753Z,18.86
2023-08-19T02:49:20.918Z,18.87
2023-08-19T02:51:49.096Z,18.87
2023-08-19T02:54:17.243Z,18.86
2023-08-19T02:56:45.324Z,18.87
2023-08-19T02:59:13.505Z,18.89
2023-08-19T03:01:43.250Z,18.90
2023-08-19T03:04:11.857Z,18.90
2023-08-19T03:06:40.223Z,18.90
2023-08-19T03:09:09.356Z,18.89
2023-08-19T03:11:38.103Z,18.88
2023-08-19T03:14:06.173Z,18.88
2023-08-19T03:16:34.403Z,18.87
2023-08-19T03:19:02.591Z,18.88
2023-08-19T03:21:31.005Z,18.86
2023-08-19T03:23:59.292Z,18.86
2023-08-19T03:26:27.339Z,18.86
2023-08-19T03:28:57.065Z,18.87
2023-08-19T03:31:25.873Z,18.87
2023-08-19T03:33:54.782Z,18.86
2023-08-19T03:36:22.998Z,18.84
2023-08-19T03:38:51.203Z,18.82
2023-08-19T03:41:19.180Z,18.80
2023-08-19T03:43:47.285Z,18.80
2023-08-19T03:46:15.588Z,18.80
2023-08-19T03:48:43.643Z,18.80
2023-08-19T03:51:11.658Z,18.78
2023-08-19T03:53:39.820Z,18.75
2023-08-19T03:56:08.162Z,18.75
2023-08-19T03:58:36.260Z,18.77
2023-08-19T04:01:08.827Z,18.81
2023-08-19T04:03:40.106Z,18.85
2023-08-19T04:06:08.149Z,18.90
2023-08-19T04:08:36.614Z,18.95
2023-08-19T04:11:06.221Z,19.01
2023-08-19T04:13:34.651Z,19.09
2023-08-19T04:16:07.044Z,19.13
2023-08-19T04:18:36.781Z,19.15
2023-08-19T04:21:06.748Z,19.14
2023-08-19T04:23:35.385Z,19.16
2023-08-19T04:26:04.597Z,19.22
2023-08-19T04:28:33.312Z,19.31
2023-08-19T04:31:06.333Z,19.37
2023-08-19T04:33:40.689Z,19.44
2023-08-19T04:36:09.105Z,19.52
2023-08-19T04:38:37.424Z,19.57
2023-08-19T04:41:08.339Z,19.65
2023-08-19T04:43:46.851Z,19.73
2023-08-19T04:46:16.824Z,19.83
2023-08-19T04:48:44.925Z,19.94
2023-08-19T04:51:13.337Z,20.07
2023-08-19T04:53:41.713Z,20.19
2023-08-19T04:56:09.825Z,20.31
2023-08-19T04:58:38.064Z,20.43
2023-08-19T05:01:06.437Z,20.56
2023-08-19T05:03:36.298Z,20.70
2023-08-19T05:06:04.822Z,20.83
2023-08-19T05:08:43.037Z,20.97
2023-08-19T05:11:11.200Z,21.08
2023-08-19T05:13:39.741Z,21.19
2023-08-19T05:16:13.421Z,21.31
2023-08-19T05:18:42.641Z,21.39
2023-08-19T05:21:11.007Z,21.37
2023-08-19T05:23:40.220Z,21.32
2023-08-19T05:26:08.866Z,21.38
2023-08-19T05:28:37.051Z,21.49
2023-08-19T05:31:05.272Z,21.62
2023-08-19T05:33:33.547Z,21.77
2023-08-19T05:36:01.705Z,21.91
2023-08-19T05:38:30.009Z,22.11
2023-08-19T05:40:58.923Z,22.41
2023-08-19T05:43:27.038Z,22.80
2023-08-19T05:45:55.197Z,23.15
2023-08-19T05:48:23.388Z,23.47
2023-08-19T05:50:51.437Z,23.71
2023-08-19T05:53:19.488Z,23.74
2023-08-19T05:55:49.090Z,23.72
2023-08-19T05:58:17.273Z,23.80
2023-08-19T06:00:45.993Z,24.01
2023-08-19T06:03:15.456Z,24.20
2023-08-19T06:05:43.956Z,24.38
2023-08-19T06:08:13.760Z,24.54
2023-08-19T06:10:45.375Z,24.79
2023-08-19T06:13:14.469Z,25.10
2023-08-19T06:15:42.650Z,25.43
2023-08-19T06:18:10.848Z,25.76
2023-08-19T06:20:38.842Z,26.07
2023-08-19T06:23:07.144Z,26.14
2023-08-19T06:25:35.287Z,26.31
2023-08-19T06:28:03.646Z,26.29
2023-08-19T06:30:32.114Z,26.15
2023-08-19T06:33:00.620Z,26.14
2023-08-19T06:35:28.983Z,26.40
2023-08-19T06:38:00.806Z,26.53
2023-08-19T06:40:35.360Z,26.65
2023-08-19T06:43:07.866Z,26.86
2023-08-19T06:45:36.565Z,27.19
2023-08-19T06:48:07.886Z,27.39
2023-08-19T06:50:36.328Z,27.36
2023-08-19T06:53:06.594Z,27.46
2023-08-19T06:55:35.174Z,27.75
2023-08-19T06:58:05.053Z,28.08
2023-08-19T07:00:35.544Z,28.31
2023-08-19T07:03:05.843Z,28.49
2023-08-19T07:05:36.338Z,28.53
2023-08-19T07:08:07.816Z,28.51
2023-08-19T07:10:36.499Z,28.34
2023-08-19T07:13:04.872Z,28.23
2023-08-19T07:15:33.426Z,28.16
2023-08-19T07:18:04.069Z,28.15
2023-08-19T07:20:32.961Z,28.27
2023-08-19T07:23:01.814Z,28.30
2023-08-19T07:25:30.452Z,28.40
2023-08-19T07:28:03.936Z,28.42
2023-08-19T07:30:32.563Z,28.63
2023-08-19T07:33:01.356Z,28.68
2023-08-19T07:35:29.422Z,28.81
2023-08-19T07:37:57.589Z,28.90
2023-08-19T07:40:25.727Z,28.57
2023-08-19T07:42:53.836Z,28.76
2023-08-19T07:45:21.875Z,29.22
2023-08-19T07:47:50.369Z,29.48
2023-08-19T07:50:18.789Z,29.62
2023-08-19T07:52:46.863Z,29.71
2023-08-19T07:55:15.040Z,29.81
2023-08-19T07:57:43.306Z,29.48
2023-08-19T08:00:11.970Z,29.46
2023-08-19T08:02:43.339Z,29.23
2023-08-19T08:05:11.837Z,29.32
2023-08-19T08:07:40.036Z,29.57
2023-08-19T08:10:08.484Z,29.90
2023-08-19T08:12:36.626Z,30.14
2023-08-19T08:15:05.265Z,30.17
2023-08-19T08:17:33.684Z,29.75
2023-08-19T08:20:02.086Z,29.77
2023-08-19T08:22:30.219Z,30.16
2023-08-19T08:24:58.320Z,30.44
2023-08-19T08:27:26.776Z,30.39
2023-08-19T08:29:55.336Z,30.20
2023-08-19T08:32:23.605Z,30.21
2023-08-19T08:34:51.829Z,30.49
2023-08-19T08:37:21.367Z,30.82
2023-08-19T08:39:49.751Z,31.12
2023-08-19T08:42:18.750Z,31.20
2023-08-19T08:44:51.013Z,31.30
2023-08-19T08:47:21.672Z,31.42
2023-08-19T08:49:51.019Z,31.52
2023-08-19T08:52:21.376Z,31.52
2023-08-19T08:54:53.238Z,31.57
2023-08-19T08:57:21.589Z,31.66
2023-08-19T08:59:50.247Z,31.57
2023-08-19T09:02:18.734Z,31.50
2023-08-19T09:04:47.831Z,31.44
2023-08-19T09:07:26.730Z,31.28
2023-08-19T09:09:59.621Z,31.06
2023-08-19T09:12:31.687Z,30.83
2023-08-19T09:15:05.129Z,30.48
2023-08-19T09:17:35.073Z,30.60
2023-08-19T09:20:05.119Z,30.86
2023-08-19T09:22:34.506Z,30.81
2023-08-19T09:25:07.347Z,30.71
2023-08-19T09:27:35.519Z,30.83
2023-08-19T09:30:03.868Z,31.08
2023-08-19T09:32:34.229Z,31.14
2023-08-19T09:35:07.255Z,31.12
2023-08-19T09:37:37.028Z,30.90
2023-08-19T09:40:12.649Z,30.81
2023-08-19T09:42:42.039Z,30.76
2023-08-19T09:45:19.113Z,30.91
2023-08-19T09:47:49.840Z,31.11
2023-08-19T09:50:20.406Z,31.28
2023-08-19T09:52:55.667Z,31.46
2023-08-19T09:55:35.505Z,31.69
2023-08-19T09:58:03.688Z,31.28
2023-08-19T10:00:31.827Z,31.21
2023-08-19T10:03:00.390Z,31.40
2023-08-19T10:05:30.302Z,31.61
2023-08-19T10:08:04.675Z,31.85
2023-08-19T10:10:34.667Z,32.01
2023-08-19T10:13:04.818Z,32.04
2023-08-19T10:15:34.799Z,31.80
2023-08-19T10:18:11.176Z,31.47
2023-08-19T10:20:42.053Z,31.40
2023-08-19T10:23:11.639Z,31.41
2023-08-19T10:25:42.693Z,31.56
2023-08-19T10:28:24.046Z,31.72
2023-08-19T10:31:10.707Z,31.82
2023-08-19T10:33:49.327Z,32.04
2023-08-19T10:36:18.897Z,32.26
2023-08-19T10:38:57.594Z,32.30
2023-08-19T10:41:31.098Z,32.34
2023-08-19T10:44:00.511Z,32.37
2023-08-19T10:46:37.493Z,32.43
2023-08-19T10:49:07.454Z,32.59
2023-08-19T10:52:08.377Z,32.49
2023-08-19T10:54:43.286Z,32.34
2023-08-19T10:57:14.200Z,32.41
2023-08-19T10:59:44.840Z,32.48
2023-08-19T11:02:14.045Z,32.28
2023-08-19T11:04:48.540Z,31.95
2023-08-19T11:07:17.789Z,32.16
2023-08-19T11:09:48.039Z,32.31
2023-08-19T11:12:19.030Z,32.24
2023-08-19T11:14:56.710Z,32.26
2023-08-19T11:17:30.382Z,32.10
2023-08-19T11:20:11.206Z,32.06
2023-08-19T11:22:47.120Z,32.23
2023-08-19T11:25:16.469Z,32.37
2023-08-19T11:27:44.781Z,32.51
2023-08-19T11:30:15.501Z,32.62
2023-08-19T11:32:50.586Z,32.71
2023-08-19T11:35:18.815Z,32.63
2023-08-19T11:37:46.994Z,32.43
2023-08-19T11:40:27.499Z,32.47
2023-08-19T11:43:12.479Z,32.52
2023-08-19T11:45:42.074Z,32.49
2023-08-19T11:48:17.535Z,32.60
2023-08-19T11:50:46.725Z,32.58
2023-08-19T11:53:25.300Z,32.61
2023-08-19T11:55:59.796Z,32.51
2023-08-19T11:58:41.190Z,32.27
2023-08-19T12:01:09.516Z,32.36
2023-08-19T12:03:42.873Z,32.46
2023-08-19T12:06:11.107Z,32.52
2023-08-19T12:08:44.232Z,32.55
2023-08-19T12:11:13.851Z,32.59
2023-08-19T12:13:42.475Z,32.61
2023-08-19T12:16:10.539Z,32.37
2023-08-19T12:18:39.712Z,32.19
2023-08-19T12:21:09.110Z,32.19
2023-08-19T12:23:37.668Z,32.14
2023-08-19T12:26:05.727Z,32.22
2023-08-19T12:28:34.045Z,32.32
2023-08-19T12:31:02.214Z,32.44
2023-08-19T12:33:30.311Z,32.49
2023-08-19T12:36:16.104Z,32.53
2023-08-19T12:38:46.908Z,32.54
2023-08-19T12:41:15.730Z,32.59
2023-08-19T12:43:44.057Z,32.65
2023-08-19T12:46:12.822Z,32.64
2023-08-19T12:48:41.180Z,32.62
2023-08-19T12:51:09.391Z,32.57
2023-08-19T12:53:37.397Z,32.45
2023-08-19T12:56:05.541Z,32.31
2023-08-19T12:58:34.434Z,32.28
2023-08-19T13:01:06.218Z,32.29
2023-08-19T13:03:36.303Z,32.19
2023-08-19T13:06:04.693Z,32.06
2023-08-19T13:08:32.705Z,32.20
2023-08-19T13:11:02.529Z,32.37
2023-08-19T13:13:30.469Z,32.49
2023-08-19T13:15:58.489Z,32.56
2023-08-19T13:18:26.570Z,32.65
2023-08-19T13:20:54.733Z,32.76
2023-08-19T13:23:22.885Z,32.86
2023-08-19T13:25:51.190Z,32.87
2023-08-19T13:28:19.287Z,32.83
2023-08-19T13:30:48.263Z,32.79
2023-08-19T13:33:16.407Z,32.76
2023-08-19T13:35:44.544Z,32.65
2023-08-19T13:38:12.677Z,32.63
2023-08-19T13:40:40.757Z,32.64
2023-08-19T13:43:08.847Z,32.48
2023-08-19T13:45:36.941Z,32.30
2023-08-19T13:48:14.611Z,32.29
2023-08-19T13:50:44.868Z,32.41
2023-08-19T13:53:13.014Z,32.54
2023-08-19T13:55:43.726Z,32.62
2023-08-19T13:58:12.182Z,32.63
2023-08-19T14:00:40.313Z,32.68
2023-08-19T14:03:08.655Z,32.62
2023-08-19T14:05:37.075Z,32.58
2023-08-19T14:08:05.602Z,32.67
2023-08-19T14:10:33.812Z,32.72
2023-08-19T14:13:01.867Z,32.69
2023-08-19T14:15:29.986Z,32.62
2023-08-19T14:17:58.535Z,32.56
2023-08-19T14:20:26.689Z,32.56
2023-08-19T14:22:54.862Z,32.53
2023-08-19T14:25:23.303Z,32.54
2023-08-19T14:27:53.591Z,32.56
2023-08-19T14:30:23.446Z,32.59
2023-08-19T14:32:51.631Z,32.65
2023-08-19T14:35:20.120Z,32.74
2023-08-19T14:37:48.330Z,32.84
2023-08-19T14:40:16.656Z,32.87
2023-08-19T14:42:44.922Z,32.86
2023-08-19T14:45:13.639Z,32.87
2023-08-19T14:47:41.978Z,32.92
2023-08-19T14:50:10.403Z,32.99
2023-08-19T14:52:38.681Z,32.96
2023-08-19T14:55:11.012Z,32.87
2023-08-19T14:57:40.028Z,32.79
2023-08-19T15:00:13.004Z,32.55
2023-08-19T15:02:52.367Z,32.42
2023-08-19T15:05:21.101Z,32.40
2023-08-19T15:07:49.458Z,32.40
2023-08-19T15:10:17.736Z,32.36
2023-08-19T15:12:46.800Z,32.25
2023-08-19T15:15:18.822Z,32.02
2023-08-19T15:17:47.613Z,32.01
2023-08-19T15:20:16.155Z,31.85
2023-08-19T15:22:45.011Z,31.82
2023-08-19T15:25:13.139Z,31.87
2023-08-19T15:27:44.547Z,31.92
2023-08-19T15:30:13.370Z,31.97
2023-08-19T15:32:49.373Z,32.04
2023-08-19T15:35:19.365Z,32.06
2023-08-19T15:37:47.805Z,31.99
2023-08-19T15:40:15.938Z,31.91
2023-08-19T15:42:44.057Z,31.85
2023-08-19T15:45:12.684Z,31.79
2023-08-19T15:47:42.371Z,31.73
2023-08-19T15:50:11.196Z,31.72
2023-08-19T15:52:39.500Z,31.75
2023-08-19T15:55:10.084Z,31.76
2023-08-19T15:57:38.925Z,31.81
2023-08-19T16:00:09.758Z,31.84
2023-08-19T16:02:38.137Z,31.81
2023-08-19T16:05:06.883Z,31.76
2023-08-19T16:07:39.168Z,31.70
2023-08-19T16:10:08.665Z,31.63
2023-08-19T16:12:37.960Z,31.57
2023-08-19T16:15:06.457Z,31.46
2023-08-19T16:17:34.901Z,31.39
2023-08-19T16:20:05.217Z,31.32
2023-08-19T16:22:33.776Z,31.25
2023-08-19T16:25:02.829Z,31.16
2023-08-19T16:27:30.854Z,31.06
2023-08-19T16:30:00.358Z,30.97
2023-08-19T16:32:29.129Z,30.89
2023-08-19T16:34:57.450Z,30.80
2023-08-19T16:37:25.434Z,30.69
2023-08-19T16:39:54.002Z,30.60
2023-08-19T16:42:23.886Z,30.51
2023-08-19T16:44:53.412Z,30.40
2023-08-19T16:47:24.027Z,30.30
2023-08-19T16:49:52.188Z,30.19
2023-08-19T16:52:21.188Z,30.08
2023-08-19T16:54:49.601Z,29.98
2023-08-19T16:57:17.876Z,29.87
2023-08-19T16:59:45.994Z,29.73
2023-08-19T17:02:14.191Z,29.58
2023-08-19T17:04:46.644Z,29.45
2023-08-19T17:07:15.187Z,29.31
2023-08-19T17:09:44.244Z,29.17
2023-08-19T17:12:12.855Z,29.03
2023-08-19T17:14:41.198Z,28.91
2023-08-19T17:17:09.313Z,28.77
2023-08-19T17:19:37.523Z,28.63
2023-08-19T17:22:05.807Z,28.50
2023-08-19T17:24:34.027Z,28.37
2023-08-19T17:27:02.326Z,28.24
2023-08-19T17:29:31.314Z,28.10
2023-08-19T17:31:59.326Z,27.97
2023-08-19T17:34:27.331Z,27.85
2023-08-19T17:36:55.426Z,27.73
2023-08-19T17:39:24.063Z,27.62
2023-08-19T17:41:52.144Z,27.51
2023-08-19T17:44:21.226Z,27.39
2023-08-19T17:46:49.115Z,27.29
2023-08-19T17:49:17.073Z,27.18
2023-08-19T17:51:50.329Z,27.07
2023-08-19T17:54:18.503Z,26.97
2023-08-19T17:56:46.561Z,26.87
2023-08-19T17:59:14.735Z,26.78
2023-08-19T18:01:42.923Z,26.69
2023-08-19T18:04:10.976Z,26.60
2023-08-19T18:06:39.294Z,26.52
2023-08-19T18:09:07.547Z,26.42
2023-08-19T18:11:36.329Z,26.32
2023-08-19T18:14:06.258Z,26.23
2023-08-19T18:16:34.629Z,26.13
2023-08-19T18:19:02.922Z,26.05
2023-08-19T18:21:31.270Z,25.95
2023-08-19T18:23:59.564Z,25.88
2023-08-19T18:26:27.723Z,25.80
2023-08-19T18:28:55.786Z,25.77
2023-08-19T18:31:24.138Z,25.73
2023-08-19T18:33:52.253Z,25.67
2023-08-19T18:36:20.328Z,25.60
2023-08-19T18:38:48.644Z,25.51
2023-08-19T18:41:16.811Z,25.45
2023-08-19T18:43:44.896Z,25.38
2023-08-19T18:46:13.149Z,25.31
2023-08-19T18:48:41.172Z,25.25
2023-08-19T18:51:09.296Z,25.21
2023-08-19T18:53:37.523Z,25.14
2023-08-19T18:56:05.872Z,25.10
2023-08-19T18:58:34.124Z,25.07
2023-08-19T19:01:08.519Z,25.04
2023-08-19T19:03:38.269Z,24.98
2023-08-19T19:06:06.643Z,24.93
2023-08-19T19:08:35.151Z,24.87
2023-08-19T19:11:04.928Z,24.81
2023-08-19T19:13:33.080Z,24.75
2023-08-19T19:16:01.220Z,24.68
2023-08-19T19:18:29.346Z,24.61
2023-08-19T19:20:57.500Z,24.53
2023-08-19T19:23:26.557Z,24.46
2023-08-19T19:25:54.849Z,24.39
2023-08-19T19:28:23.049Z,24.32
2023-08-19T19:30:51.563Z,24.25
2023-08-19T19:33:19.565Z,24.18
2023-08-19T19:35:48.000Z,24.12
2023-08-19T19:38:16.285Z,24.07
2023-08-19T19:40:44.346Z,24.03
2023-08-19T19:43:12.659Z,24.01
2023-08-19T19:45:42.718Z,23.99
2023-08-19T19:48:12.059Z,23.98
2023-08-19T19:50:41.809Z,23.96
2023-08-19T19:53:10.174Z,23.94
2023-08-19T19:55:38.568Z,23.93
2023-08-19T19:58:06.682Z,23.92
2023-08-19T20:00:36.832Z,23.89
2023-08-19T20:03:05.237Z,23.85
2023-08-19T20:05:33.643Z,23.80
2023-08-19T20:08:01.986Z,23.74
2023-08-19T20:10:30.039Z,23.68
2023-08-19T20:12:58.121Z,23.61
2023-08-19T20:15:29.885Z,23.53
2023-08-19T20:17:58.790Z,23.45
2023-08-19T20:20:27.086Z,23.38
2023-08-19T20:22:55.061Z,23.31
2023-08-19T20:25:23.097Z,23.24
2023-08-19T20:27:51.206Z,23.17
2023-08-19T20:30:19.576Z,23.12
2023-08-19T20:32:48.241Z,23.09
2023-08-19T20:35:19.557Z,23.06
2023-08-19T20:37:47.660Z,23.05
2023-08-19T20:40:16.136Z,23.03
2023-08-19T20:42:44.501Z,23.00
2023-08-19T20:45:13.487Z,22.98
2023-08-19T20:47:43.138Z,22.97
2023-08-19T20:50:11.647Z,22.96
2023-08-19T20:52:41.071Z,22.95
2023-08-19T20:55:09.697Z,22.93
2023-08-19T20:57:38.048Z,22.90
2023-08-19T21:00:07.979Z,22.87
2023-08-19T21:02:36.201Z,22.83
2023-08-19T21:05:04.734Z,22.78
2023-08-19T21:07:34.400Z,22.73
2023-08-19T21:10:05.229Z,22.66
2023-08-19T21:12:33.544Z,22.60
2023-08-19T21:15:01.837Z,22.53
2023-08-19T21:17:30.025Z,22.46
2023-08-19T21:19:58.332Z,22.40
2023-08-19T21:22:26.462Z,22.35
2023-08-19T21:24:54.833Z,22.31
2023-08-19T21:27:23.324Z,22.28
2023-08-19T21:29:51.810Z,22.25
2023-08-19T21:32:19.927Z,22.23
2023-08-19T21:34:48.029Z,22.21
2023-08-19T21:37:16.214Z,22.19
2023-08-19T21:39:44.249Z,22.18
2023-08-19T21:42:12.297Z,22.18
2023-08-19T21:44:40.246Z,22.18
2023-08-19T21:47:08.257Z,22.18
2023-08-19T21:49:36.965Z,22.16
2023-08-19T21:52:05.549Z,22.15
2023-08-19T21:54:33.652Z,22.12
2023-08-19T21:57:01.792Z,22.07
2023-08-19T21:59:29.844Z,22.01
2023-08-19T22:01:57.928Z,21.95
2023-08-19T22:04:26.117Z,21.87
2023-08-19T22:06:54.194Z,21.80
2023-08-19T22:09:22.357Z,21.73
2023-08-19T22:11:50.383Z,21.68
2023-08-19T22:14:18.403Z,21.63
2023-08-19T22:16:46.491Z,21.60
2023-08-19T22:19:14.733Z,21.57
2023-08-19T22:21:42.946Z,21.55
2023-08-19T22:24:11.354Z,21.54
2023-08-19T22:26:39.471Z,21.52
2023-08-19T22:29:07.701Z,21.52
2023-08-19T22:31:36.422Z,21.51
2023-08-19T22:34:04.972Z,21.51
2023-08-19T22:36:32.998Z,21.50
2023-08-19T22:39:03.470Z,21.50
2023-08-19T22:41:31.442Z,21.49
2023-08-19T22:43:59.594Z,21.46
2023-08-19T22:46:27.952Z,21.43
2023-08-19T22:48:55.946Z,21.39
2023-08-19T22:51:23.938Z,21.34
2023-08-19T22:53:52.027Z,21.28
2023-08-19T22:56:19.997Z,21.20
2023-08-19T22:58:47.984Z,21.14
2023-08-19T23:01:15.971Z,21.08
2023-08-19T23:03:44.054Z,21.03
2023-08-19T23:06:12.191Z,21.00
2023-08-19T23:08:42.731Z,20.98
2023-08-19T23:11:10.932Z,20.96
2023-08-19T23:13:39.071Z,20.95
2023-08-19T23:16:07.230Z,20.94
2023-08-19T23:18:35.286Z,20.93
2023-08-19T23:21:04.061Z,20.93
2023-08-19T23:23:32.180Z,20.93
2023-08-19T23:26:00.410Z,20.92
2023-08-19T23:28:28.647Z,20.91
2023-08-19T23:30:56.734Z,20.91
2023-08-19T23:33:24.908Z,20.90
2023-08-19T23:35:53.057Z,20.89
2023-08-19T23:38:21.312Z,20.88
2023-08-19T23:40:49.629Z,20.85
2023-08-19T23:43:18.146Z,20.82
2023-08-19T23:45:46.462Z,20.79
2023-08-19T23:48:15.452Z,20.74
2023-08-19T23:50:43.965Z,20.70
2023-08-19T23:53:14.106Z,20.64
2023-08-19T23:55:42.663Z,20.58
2023-08-19T23:58:10.967Z,20.52
